Rolls, Texas
Current Conditions -  °F | °C
As of 8:58 PM on Friday 21 Nov 2014 (Local Time) from KDYS Reporting Station
Clear Clear  
Wind Chill: 57°   Ceiling: Unl
Heat Index: 57°   Visibility: 10mi
Dew Point: 51°   Wind: 1mph
Humidity: 78%   Direction: 210°SSW
Pressure: 30"   Gusts: NA
Location:  33.1968°N, 99.9025°W
Report Text: KDYS 220258Z AUTO 21001KT 10SM CLR 14/10 A3000 RMK AO2 SLP139 T01410103 52011 $
Loading
Personal Weather Stations






























Interactive Weather Map New forecast layout! Learn more

10-Day Weather Forecast

Advertisements
Track Severe Weather on mobile